createdAt,value
2024-05-09T00:00:35.971Z,15.87
2024-05-09T00:03:08.141Z,15.86
2024-05-09T00:05:35.992Z,15.85
2024-05-09T00:08:03.159Z,15.78
2024-05-09T00:10:35.999Z,15.74
2024-05-09T00:13:05.553Z,15.78
2024-05-09T00:15:33.359Z,15.77
2024-05-09T00:18:00.386Z,15.75
2024-05-09T00:20:35.311Z,15.80
2024-05-09T00:23:07.222Z,15.85
2024-05-09T00:25:34.423Z,15.85
2024-05-09T00:28:01.008Z,15.83
2024-05-09T00:30:34.123Z,15.81
2024-05-09T00:33:04.617Z,15.81
2024-05-09T00:35:32.330Z,15.86
2024-05-09T00:37:59.289Z,15.84
2024-05-09T00:40:35.519Z,15.79
2024-05-09T00:43:06.396Z,15.75
2024-05-09T00:45:34.511Z,15.73
2024-05-09T00:48:03.539Z,15.75
2024-05-09T00:50:36.328Z,15.75
2024-05-09T00:53:06.416Z,15.74
2024-05-09T00:55:35.163Z,15.71
2024-05-09T00:58:02.695Z,15.68
2024-05-09T01:00:37.830Z,15.69
2024-05-09T01:03:07.340Z,15.74
2024-05-09T01:05:34.943Z,15.73
2024-05-09T01:08:02.683Z,15.65
2024-05-09T01:10:34.423Z,15.62
2024-05-09T01:13:03.558Z,15.65
2024-05-09T01:15:30.261Z,15.66
2024-05-09T01:17:57.691Z,15.67
2024-05-09T01:20:36.411Z,15.65
2024-05-09T01:23:08.997Z,15.62
2024-05-09T01:25:35.995Z,15.63
2024-05-09T01:28:02.627Z,15.67
2024-05-09T01:30:34.668Z,15.77
2024-05-09T01:33:04.681Z,15.72
2024-05-09T01:35:32.047Z,15.67
2024-05-09T01:37:58.848Z,15.62
2024-05-09T01:40:35.427Z,15.58
2024-05-09T01:43:05.011Z,15.55
2024-05-09T01:45:31.776Z,15.52
2024-05-09T01:47:58.666Z,15.62
2024-05-09T01:50:36.693Z,15.66
2024-05-09T01:53:07.179Z,15.69
2024-05-09T01:55:33.830Z,15.65
2024-05-09T01:58:00.428Z,15.56
2024-05-09T02:00:37.655Z,15.50
2024-05-09T02:03:10.710Z,15.59
2024-05-09T02:05:39.298Z,15.71
2024-05-09T02:08:06.944Z,15.76
2024-05-09T02:10:33.842Z,15.69
2024-05-09T02:13:00.903Z,15.58
2024-05-09T02:15:27.708Z,15.49
2024-05-09T02:17:54.564Z,15.49
2024-05-09T02:20:30.574Z,15.47
2024-05-09T02:23:04.109Z,15.48
2024-05-09T02:25:31.644Z,15.47
2024-05-09T02:27:58.243Z,15.36
2024-05-09T02:30:34.897Z,15.40
2024-05-09T02:33:06.322Z,15.46
2024-05-09T02:35:33.144Z,15.43
2024-05-09T02:38:00.004Z,15.42
2024-05-09T02:40:35.508Z,15.41
2024-05-09T02:43:05.044Z,15.31
2024-05-09T02:45:31.753Z,15.26
2024-05-09T02:47:58.725Z,15.18
2024-05-09T02:50:33.746Z,15.22
2024-05-09T02:53:05.194Z,15.21
2024-05-09T02:55:32.178Z,15.18
2024-05-09T02:57:58.802Z,15.22
2024-05-09T03:00:34.474Z,15.24
2024-05-09T03:03:10.456Z,15.18
2024-05-09T03:05:39.513Z,15.14
2024-05-09T03:08:06.575Z,15.14
2024-05-09T03:10:36.570Z,15.05
2024-05-09T03:13:09.832Z,15.06
2024-05-09T03:15:36.696Z,15.10
2024-05-09T03:18:04.714Z,15.04
2024-05-09T03:20:34.914Z,14.98
2024-05-09T03:23:03.767Z,14.97
2024-05-09T03:25:30.682Z,14.90
2024-05-09T03:27:57.229Z,14.94
2024-05-09T03:30:35.931Z,14.93
2024-05-09T03:33:20.579Z,15.02
2024-05-09T03:35:48.242Z,15.11
2024-05-09T03:38:15.408Z,15.01
2024-05-09T03:40:46.494Z,14.95
2024-05-09T03:43:13.674Z,14.97
2024-05-09T03:45:40.271Z,14.93
2024-05-09T03:48:07.715Z,14.88
2024-05-09T03:50:36.172Z,14.90
2024-05-09T03:53:03.957Z,14.92
2024-05-09T03:55:31.124Z,14.83
2024-05-09T03:57:57.824Z,14.81
2024-05-09T04:00:31.390Z,14.84
2024-05-09T04:03:05.919Z,14.88
2024-05-09T04:05:34.414Z,14.80
2024-05-09T04:08:01.438Z,14.81
2024-05-09T04:10:33.177Z,14.87
2024-05-09T04:13:01.394Z,14.82
2024-05-09T04:15:28.078Z,14.76
2024-05-09T04:17:54.801Z,14.84
2024-05-09T04:20:32.583Z,14.84
2024-05-09T04:23:11.027Z,14.91
2024-05-09T04:25:38.054Z,14.99
2024-05-09T04:28:05.237Z,14.96
2024-05-09T04:30:38.014Z,15.00
2024-05-09T04:33:09.706Z,15.10
2024-05-09T04:35:38.527Z,15.14
2024-05-09T04:38:05.516Z,15.15
2024-05-09T04:40:35.571Z,15.14
2024-05-09T04:43:04.977Z,15.15
2024-05-09T04:45:31.652Z,15.23
2024-05-09T04:47:58.584Z,15.19
2024-05-09T04:50:33.574Z,15.24
2024-05-09T04:53:05.034Z,15.31
2024-05-09T04:55:33.084Z,15.37
2024-05-09T04:57:59.811Z,15.39
2024-05-09T05:00:34.530Z,15.32
2024-05-09T05:03:10.152Z,15.23
2024-05-09T05:05:42.889Z,15.28
2024-05-09T05:08:14.072Z,15.30
2024-05-09T05:10:41.561Z,15.27
2024-05-09T05:13:20.047Z,15.35
2024-05-09T05:15:48.815Z,15.47
2024-05-09T05:18:16.669Z,15.46
2024-05-09T05:20:43.780Z,15.47
2024-05-09T05:23:13.451Z,15.50
2024-05-09T05:25:41.030Z,15.51
2024-05-09T05:28:07.981Z,15.51
2024-05-09T05:30:37.437Z,15.55
2024-05-09T05:33:05.366Z,15.64
2024-05-09T05:35:32.050Z,15.74
2024-05-09T05:37:58.661Z,15.65
2024-05-09T05:40:33.004Z,15.72
2024-05-09T05:43:04.921Z,15.68
2024-05-09T05:45:31.496Z,15.71
2024-05-09T05:47:58.320Z,15.68
2024-05-09T05:50:32.535Z,15.66
2024-05-09T05:53:03.326Z,15.69
2024-05-09T05:55:30.014Z,15.75
2024-05-09T05:57:56.699Z,15.71
2024-05-09T06:00:29.926Z,15.67
2024-05-09T06:03:04.712Z,15.74
2024-05-09T06:05:31.788Z,15.86
2024-05-09T06:07:58.619Z,15.89
2024-05-09T06:10:29.564Z,15.91
2024-05-09T06:13:01.473Z,15.99
2024-05-09T06:15:28.059Z,16.00
2024-05-09T06:17:54.863Z,16.03
2024-05-09T06:20:31.263Z,16.10
2024-05-09T06:23:03.280Z,16.17
2024-05-09T06:25:30.080Z,16.16
2024-05-09T06:27:56.723Z,16.20
2024-05-09T06:30:30.387Z,16.24
2024-05-09T06:33:05.827Z,16.30
2024-05-09T06:35:33.634Z,16.35
2024-05-09T06:38:00.660Z,16.45
2024-05-09T06:40:36.172Z,16.48
2024-05-09T06:43:05.448Z,16.52
2024-05-09T06:45:32.011Z,16.55
2024-05-09T06:47:58.749Z,16.50
2024-05-09T06:50:28.544Z,16.58
2024-05-09T06:53:01.975Z,16.56
2024-05-09T06:55:28.706Z,16.64
2024-05-09T06:57:55.316Z,16.70
2024-05-09T07:00:27.752Z,16.76
2024-05-09T07:03:05.765Z,16.84
2024-05-09T07:05:33.404Z,16.90
2024-05-09T07:08:00.189Z,16.96
2024-05-09T07:10:32.990Z,16.97
2024-05-09T07:13:01.983Z,16.93
2024-05-09T07:15:28.622Z,16.98
2024-05-09T07:17:55.504Z,16.97
2024-05-09T07:20:31.716Z,17.05
2024-05-09T07:23:04.844Z,17.18
2024-05-09T07:25:31.689Z,17.24
2024-05-09T07:27:58.334Z,17.30
2024-05-09T07:30:32.668Z,17.34
2024-05-09T07:33:01.523Z,17.33
2024-05-09T07:35:28.934Z,17.41
2024-05-09T07:37:55.748Z,17.50
2024-05-09T07:40:32.296Z,17.61
2024-05-09T07:43:07.243Z,17.75
2024-05-09T07:52:23.782Z,17.88
2024-05-09T07:53:38.835Z,17.91
2024-05-09T07:56:09.387Z,17.96
2024-05-09T07:58:36.974Z,18.00
2024-05-09T08:01:03.952Z,18.07
2024-05-09T08:03:31.123Z,18.15
2024-05-09T08:05:57.853Z,18.21
2024-05-09T08:08:24.467Z,18.29
2024-05-09T08:10:51.483Z,18.33
2024-05-09T08:13:18.204Z,18.31
2024-05-09T08:15:45.039Z,18.33
2024-05-09T08:18:11.981Z,18.41
2024-05-09T08:20:40.072Z,18.49
2024-05-09T08:23:07.192Z,18.59
2024-05-09T08:25:33.875Z,18.73
2024-05-09T08:28:00.631Z,19.07
2024-05-09T08:30:33.631Z,19.07
2024-05-09T08:33:04.836Z,19.12
2024-05-09T08:35:32.276Z,19.23
2024-05-09T08:37:59.368Z,19.39
2024-05-09T08:40:33.580Z,19.47
2024-05-09T08:43:06.756Z,19.66
2024-05-09T08:45:35.207Z,19.87
2024-05-09T08:48:05.782Z,20.06
2024-05-09T08:50:38.505Z,20.03
2024-05-09T08:53:06.922Z,20.13
2024-05-09T08:55:33.608Z,19.78
2024-05-09T08:58:02.688Z,19.76
2024-05-09T09:00:36.797Z,19.97
2024-05-09T09:03:09.353Z,20.15
2024-05-09T09:05:39.549Z,20.40
2024-05-09T09:08:08.632Z,20.47
2024-05-09T09:10:36.110Z,20.67
2024-05-09T09:13:09.734Z,20.99
2024-05-09T09:15:47.194Z,21.08
2024-05-09T09:18:15.275Z,21.24
2024-05-09T09:20:42.446Z,21.48
2024-05-09T09:23:09.129Z,21.35
2024-05-09T09:25:38.925Z,21.27
2024-05-09T09:28:06.969Z,21.21
2024-05-09T09:30:37.401Z,20.84
2024-05-09T09:33:06.330Z,20.48
2024-05-09T09:35:33.882Z,20.50
2024-05-09T09:38:02.988Z,20.91
2024-05-09T09:40:37.585Z,21.46
2024-05-09T09:43:14.583Z,21.61
2024-05-09T09:45:43.539Z,21.80
2024-05-09T09:48:10.821Z,22.07
2024-05-09T09:50:38.848Z,21.96
2024-05-09T09:53:07.557Z,22.10
2024-05-09T09:55:35.526Z,22.02
2024-05-09T09:58:04.607Z,21.39
2024-05-09T10:00:34.297Z,21.13
2024-05-09T10:03:01.824Z,21.51
2024-05-09T10:05:29.476Z,21.89
2024-05-09T10:07:57.377Z,22.08
2024-05-09T10:10:31.956Z,22.34
2024-05-09T10:13:07.489Z,22.46
2024-05-09T10:15:48.468Z,22.45
2024-05-09T10:18:15.539Z,22.40
2024-05-09T10:20:46.475Z,22.40
2024-05-09T10:23:30.726Z,22.38
2024-05-09T10:26:03.017Z,22.30
2024-05-09T10:28:35.071Z,22.16
2024-05-09T10:31:13.062Z,22.42
2024-05-09T10:33:52.338Z,22.49
2024-05-09T10:36:20.624Z,22.54
2024-05-09T10:38:49.105Z,22.33
2024-05-09T10:41:20.135Z,22.19
2024-05-09T10:43:47.724Z,22.17
2024-05-09T10:46:15.243Z,22.02
2024-05-09T10:48:43.213Z,22.23
2024-05-09T10:51:10.471Z,22.50
2024-05-09T10:53:44.163Z,22.40
2024-05-09T10:56:11.413Z,22.17
2024-05-09T10:58:38.037Z,22.26
2024-05-09T11:01:07.085Z,22.36
2024-05-09T11:03:35.494Z,22.51
2024-05-09T11:06:02.724Z,22.52
2024-05-09T11:08:31.826Z,22.45
2024-05-09T11:10:59.574Z,22.45
2024-05-09T11:13:30.942Z,22.59
2024-05-09T11:15:58.679Z,22.74
2024-05-09T11:18:28.950Z,22.84
2024-05-09T11:20:58.149Z,23.00
2024-05-09T11:23:26.647Z,22.77
2024-05-09T11:25:55.513Z,22.61
2024-05-09T11:28:22.954Z,22.28
2024-05-09T11:30:50.635Z,22.52
2024-05-09T11:33:18.996Z,22.72
2024-05-09T11:35:47.062Z,22.84
2024-05-09T11:38:14.355Z,22.75
2024-05-09T11:40:41.063Z,22.70
2024-05-09T11:43:07.874Z,22.73
2024-05-09T11:45:34.662Z,22.77
2024-05-09T11:48:01.516Z,22.87
2024-05-09T11:50:33.025Z,22.91
2024-05-09T11:53:02.315Z,22.87
2024-05-09T11:55:29.227Z,22.80
2024-05-09T11:57:56.277Z,22.74
2024-05-09T12:00:33.682Z,22.39
2024-05-09T12:03:05.358Z,22.57
2024-05-09T12:05:33.122Z,22.70
2024-05-09T12:08:00.777Z,22.53
2024-05-09T12:10:33.176Z,22.24
2024-05-09T12:13:02.819Z,22.64
2024-05-09T12:15:30.241Z,22.86
2024-05-09T12:17:59.110Z,23.07
2024-05-09T12:20:35.622Z,23.14
2024-05-09T12:23:05.232Z,23.15
2024-05-09T12:25:31.881Z,23.14
2024-05-09T12:27:58.598Z,23.43
2024-05-09T12:30:33.329Z,23.37
2024-05-09T12:33:04.982Z,23.23
2024-05-09T12:35:31.901Z,23.27
2024-05-09T12:37:58.559Z,23.49
2024-05-09T12:40:34.285Z,23.32
2024-05-09T12:43:04.518Z,23.30
2024-05-09T12:45:31.519Z,23.05
2024-05-09T12:47:58.476Z,23.07
2024-05-09T12:50:31.939Z,22.89
2024-05-09T12:53:00.830Z,22.58
2024-05-09T12:55:28.504Z,22.55
2024-05-09T12:57:57.255Z,22.56
2024-05-09T13:00:31.093Z,22.52
2024-05-09T13:03:00.961Z,22.58
2024-05-09T13:05:28.157Z,22.83
2024-05-09T13:07:56.430Z,23.25
2024-05-09T13:10:30.688Z,23.10
2024-05-09T13:13:00.124Z,22.84
2024-05-09T13:15:27.362Z,22.93
2024-05-09T13:17:56.378Z,23.11
2024-05-09T13:20:31.210Z,23.23
2024-05-09T13:23:01.817Z,23.26
2024-05-09T13:25:28.462Z,23.25
2024-05-09T13:27:56.293Z,23.14
2024-05-09T13:30:29.750Z,23.06
2024-05-09T13:33:06.319Z,23.06
2024-05-09T13:35:35.409Z,23.11
2024-05-09T13:38:03.055Z,23.20
2024-05-09T13:40:34.184Z,23.04
2024-05-09T13:43:06.065Z,23.11
2024-05-09T13:45:33.622Z,23.20
2024-05-09T13:48:01.965Z,23.24
2024-05-09T13:50:34.495Z,23.25
2024-05-09T13:53:05.086Z,23.07
2024-05-09T13:55:32.694Z,23.14
2024-05-09T13:57:59.630Z,23.24
2024-05-09T14:00:38.427Z,23.01
2024-05-09T14:03:11.655Z,22.95
2024-05-09T14:05:38.575Z,22.97
2024-05-09T14:08:06.020Z,23.18
2024-05-09T14:10:32.979Z,23.34
2024-05-09T14:13:01.046Z,23.40
2024-05-09T14:15:27.937Z,23.27
2024-05-09T14:17:55.407Z,23.21
2024-05-09T14:20:30.397Z,23.22
2024-05-09T14:22:59.809Z,23.05
2024-05-09T14:25:31.944Z,22.97
2024-05-09T14:27:58.930Z,22.94
2024-05-09T14:30:34.517Z,22.89
2024-05-09T14:33:05.206Z,22.89
2024-05-09T14:35:32.367Z,22.87
2024-05-09T14:37:59.252Z,22.85
2024-05-09T14:40:36.460Z,22.94
2024-05-09T14:43:08.142Z,23.14
2024-05-09T14:45:35.103Z,23.13
2024-05-09T14:48:02.789Z,23.08
2024-05-09T14:50:35.852Z,23.00
2024-05-09T14:53:06.628Z,23.12
2024-05-09T14:55:35.917Z,23.24
2024-05-09T14:58:03.591Z,23.29
2024-05-09T15:00:35.648Z,23.22
2024-05-09T15:03:03.973Z,23.06
2024-05-09T15:05:30.819Z,22.81
2024-05-09T15:07:58.142Z,22.81
2024-05-09T15:10:33.721Z,22.93
2024-05-09T15:13:02.890Z,22.84
2024-05-09T15:15:29.951Z,22.90
2024-05-09T15:17:56.946Z,22.84
2024-05-09T15:20:31.308Z,22.78
2024-05-09T15:23:02.242Z,22.82
2024-05-09T15:25:29.094Z,22.76
2024-05-09T15:27:55.911Z,22.73
2024-05-09T15:32:52.292Z,22.77
2024-05-09T15:35:19.066Z,22.82
2024-05-09T15:37:48.187Z,22.79
2024-05-09T15:40:18.470Z,22.78
2024-05-09T15:42:52.399Z,22.79
2024-05-09T15:45:19.020Z,22.79
2024-05-09T15:47:45.764Z,22.74
2024-05-09T15:50:20.086Z,22.77
2024-05-09T15:52:50.614Z,22.63
2024-05-09T15:55:17.263Z,22.60
2024-05-09T15:57:46.103Z,22.68
2024-05-09T16:00:24.402Z,22.68
2024-05-09T16:02:55.782Z,22.74
2024-05-09T16:05:23.092Z,22.71
2024-05-09T16:07:49.780Z,22.69
2024-05-09T16:10:22.756Z,22.71
2024-05-09T16:12:52.479Z,22.63
2024-05-09T16:15:19.059Z,22.63
2024-05-09T16:17:46.443Z,22.58
2024-05-09T16:20:18.140Z,22.51
2024-05-09T16:22:48.792Z,22.50
2024-05-09T16:25:15.460Z,22.45
2024-05-09T16:27:42.408Z,22.43
2024-05-09T16:30:17.962Z,22.41
2024-05-09T16:32:48.649Z,22.38
2024-05-09T16:35:16.001Z,22.39
2024-05-09T16:37:42.635Z,22.38
2024-05-09T16:40:21.415Z,22.42
2024-05-09T16:42:52.458Z,22.41
2024-05-09T16:45:19.009Z,22.34
2024-05-09T16:47:45.740Z,22.31
2024-05-09T16:50:15.804Z,22.28
2024-05-09T16:52:46.093Z,22.31
2024-05-09T16:55:12.820Z,22.32
2024-05-09T16:57:39.894Z,22.29
2024-05-09T17:00:14.532Z,22.33
2024-05-09T17:02:44.829Z,22.30
2024-05-09T17:05:11.525Z,22.28
2024-05-09T17:07:38.566Z,22.29
2024-05-09T17:10:10.197Z,22.29
2024-05-09T17:12:42.792Z,22.23
2024-05-09T17:15:09.454Z,22.17
2024-05-09T17:17:36.122Z,22.11
2024-05-09T17:20:04.694Z,22.11
2024-05-09T17:22:35.142Z,22.06
2024-05-09T17:25:02.003Z,22.04
2024-05-09T17:27:28.687Z,22.01
2024-05-09T17:29:55.390Z,22.00
2024-05-09T17:32:22.074Z,21.95
2024-05-09T17:34:48.887Z,21.87
2024-05-09T17:37:15.698Z,21.84
2024-05-09T17:39:42.492Z,21.79
2024-05-09T17:42:09.271Z,21.82
2024-05-09T17:44:35.827Z,21.78
2024-05-09T17:47:02.521Z,21.72
2024-05-09T17:49:29.229Z,21.68
2024-05-09T17:51:56.184Z,21.66
2024-05-09T17:54:22.787Z,21.66
2024-05-09T17:56:50.556Z,21.58
2024-05-09T17:59:17.174Z,21.53
2024-05-09T18:01:43.864Z,21.46
2024-05-09T18:04:10.815Z,21.42
2024-05-09T18:06:37.512Z,21.40
2024-05-09T18:09:04.212Z,21.38
2024-05-09T18:11:30.874Z,21.30
2024-05-09T18:13:58.234Z,21.24
2024-05-09T18:16:25.335Z,21.22
2024-05-09T18:18:52.438Z,21.17
2024-05-09T18:21:19.140Z,21.08
2024-05-09T18:23:45.760Z,21.05
2024-05-09T18:26:12.416Z,20.96
2024-05-09T18:28:39.064Z,20.91
2024-05-09T18:31:05.655Z,20.93
2024-05-09T18:33:32.481Z,20.85
2024-05-09T18:35:59.279Z,20.80
2024-05-09T18:38:26.945Z,20.76
2024-05-09T18:40:54.393Z,20.70
2024-05-09T18:43:28.473Z,20.68
2024-05-09T18:45:58.618Z,20.67
2024-05-09T18:48:25.365Z,20.58
2024-05-09T18:50:52.157Z,20.54
2024-05-09T18:53:18.963Z,20.50
2024-05-09T18:55:45.623Z,20.43
2024-05-09T18:58:12.629Z,20.39
2024-05-09T19:00:41.746Z,20.34
2024-05-09T19:03:13.769Z,20.26
2024-05-09T19:05:43.395Z,20.21
2024-05-09T19:08:11.432Z,20.20
2024-05-09T19:10:39.042Z,20.17
2024-05-09T19:13:10.678Z,20.14
2024-05-09T19:15:40.380Z,20.13
2024-05-09T19:18:07.822Z,20.14
2024-05-09T19:20:36.480Z,20.11
2024-05-09T19:23:04.556Z,20.04
2024-05-09T19:25:32.035Z,20.00
2024-05-09T19:27:59.151Z,19.93
2024-05-09T19:30:36.331Z,19.91
2024-05-09T19:33:07.280Z,19.89
2024-05-09T19:35:34.013Z,19.87
2024-05-09T19:38:00.858Z,19.80
2024-05-09T19:40:31.878Z,19.77
2024-05-09T19:43:03.207Z,19.74
2024-05-09T19:45:30.735Z,19.72
2024-05-09T19:47:57.524Z,19.64
2024-05-09T19:50:32.450Z,19.58
2024-05-09T19:53:07.070Z,19.56
2024-05-09T19:55:34.165Z,19.56
2024-05-09T19:58:04.864Z,19.52
2024-05-09T20:00:39.030Z,19.46
2024-05-09T20:03:08.426Z,19.42
2024-05-09T20:05:36.036Z,19.40
2024-05-09T20:08:03.103Z,19.41
2024-05-09T20:10:32.826Z,19.33
2024-05-09T20:13:02.445Z,19.34
2024-05-09T20:15:29.376Z,19.32
2024-05-09T20:17:56.178Z,19.26
2024-05-09T20:20:33.081Z,19.26
2024-05-09T20:23:05.800Z,19.21
2024-05-09T20:25:32.413Z,19.14
2024-05-09T20:27:59.018Z,19.08
2024-05-09T20:30:31.557Z,19.04
2024-05-09T20:33:00.496Z,19.06
2024-05-09T20:35:30.415Z,19.08
2024-05-09T20:37:57.178Z,19.12
2024-05-09T20:40:29.203Z,19.08
2024-05-09T20:43:00.248Z,18.93
2024-05-09T20:45:27.071Z,18.90
2024-05-09T20:47:53.947Z,18.88
2024-05-09T20:50:28.836Z,18.93
2024-05-09T20:53:03.160Z,18.95
2024-05-09T20:55:30.131Z,18.91
2024-05-09T20:57:57.252Z,18.87
2024-05-09T21:00:30.355Z,18.87
2024-05-09T21:03:05.298Z,18.83
2024-05-09T21:05:32.238Z,18.84
2024-05-09T21:07:58.911Z,18.78
2024-05-09T21:10:27.178Z,18.74
2024-05-09T21:12:56.418Z,18.77
2024-05-09T21:15:23.181Z,18.78
2024-05-09T21:17:49.798Z,18.74
2024-05-09T21:20:20.613Z,18.72
2024-05-09T21:22:50.871Z,18.70
2024-05-09T21:25:17.509Z,18.66
2024-05-09T21:27:44.180Z,18.66
2024-05-09T21:30:18.416Z,18.65
2024-05-09T21:32:50.270Z,18.70
2024-05-09T21:35:17.680Z,18.74
2024-05-09T21:37:44.387Z,18.75
2024-05-09T21:40:14.050Z,18.67
2024-05-09T21:42:48.643Z,18.62
2024-05-09T21:45:15.294Z,18.64
2024-05-09T21:47:42.309Z,18.63
2024-05-09T21:50:12.523Z,18.62
2024-05-09T21:52:41.936Z,18.62
2024-05-09T21:55:08.960Z,18.66
2024-05-09T21:57:35.627Z,18.70
2024-05-09T22:00:03.265Z,18.70
2024-05-09T22:02:30.997Z,18.71
2024-05-09T22:04:57.818Z,18.65
2024-05-09T22:07:24.598Z,18.55
2024-05-09T22:09:51.200Z,18.48
2024-05-09T22:12:17.744Z,18.38
2024-05-09T22:14:44.309Z,18.29
2024-05-09T22:17:10.949Z,18.25
2024-05-09T22:19:37.600Z,18.21
2024-05-09T22:22:04.507Z,18.25
2024-05-09T22:24:31.099Z,18.36
2024-05-09T22:26:57.702Z,18.42
2024-05-09T22:29:24.284Z,18.32
2024-05-09T22:31:50.826Z,18.23
2024-05-09T22:34:17.585Z,18.21
2024-05-09T22:36:44.296Z,18.14
2024-05-09T22:39:10.917Z,18.14
2024-05-09T22:41:39.369Z,18.13
2024-05-09T22:44:06.122Z,18.14
2024-05-09T22:46:32.783Z,18.11
2024-05-09T22:48:59.574Z,18.15
2024-05-09T22:51:26.238Z,18.28
2024-05-09T22:53:52.813Z,18.30
2024-05-09T22:56:29.186Z,18.33
2024-05-09T22:58:56.394Z,18.34
2024-05-09T23:01:26.335Z,18.27
2024-05-09T23:03:53.886Z,18.25
2024-05-09T23:06:20.541Z,18.19
2024-05-09T23:08:47.135Z,18.18
2024-05-09T23:11:13.916Z,18.24
2024-05-09T23:13:40.553Z,18.28
2024-05-09T23:16:07.411Z,18.29
2024-05-09T23:18:34.071Z,18.26
2024-05-09T23:21:01.174Z,18.21
2024-05-09T23:23:27.768Z,18.13
2024-05-09T23:25:54.310Z,17.88
2024-05-09T23:28:20.869Z,17.82
2024-05-09T23:30:47.648Z,17.95
2024-05-09T23:33:14.724Z,17.83
2024-05-09T23:35:44.038Z,17.85
2024-05-09T23:38:11.034Z,17.88
2024-05-09T23:40:40.347Z,17.93
2024-05-09T23:43:10.010Z,17.95
2024-05-09T23:45:37.345Z,17.91
2024-05-09T23:48:04.758Z,17.86
2024-05-09T23:50:36.052Z,17.85
2024-05-09T23:53:05.838Z,17.89
2024-05-09T23:55:33.039Z,17.97
2024-05-09T23:57:59.842Z,17.99
